PWSweather.com
Personal Weather Stations
Station Observations
LABLIDAR
PotenzaIT

PotenzaIT

Lat: 40.6467, Lon: 15.809

Elevation: 2395

Station Type: Oregon WMRS200

High Low Average
Temperature 75.2°F24.0°F 62.8°F17.1°F 70.1°F21.2°F
Dew Point 52.2°F11.2°F 47.1°F8.4°F 49.4°F9.7°F
Winds 2.9 mph ENE4.7 mph ENE Calm Calm 0.7 mph 1.1 mph
Wind Gusts 6.3 mph10.1 mph -- 2.0 mph3.2 mph
Humidity 58% 37% 48%
Pressure 27.73 in939.00 in 27.64 in936.00 in -
Precipitation 0.00 in0.00 in - -
Hour Temp Dew Point Humidity Winds Wind Gusts Pressure Precip Precip Rate Daily Precip Total
12:02 AM 68.4°F20.2°C 50.1°F10.1°C 52% Calm Calm -- 27.73 in939.0 mb 0.00 in0.0 mm 0.00 in/hr0.0 mm/hr 0.00 in0.0 mm
12:07 AM 68.4°F20.2°C 50.1°F10.1°C 52% Calm Calm -- 27.73 in939.0 mb 0.00 in0.0 mm 0.00 in/hr0.0 mm/hr 0.00 in0.0 mm
12:12 AM 68.2°F20.1°C 49.9°F9.9°C 52% Calm Calm -- 27.73 in939.0 mb 0.00 in0.0 mm 0.00 in/hr0.0 mm/hr 0.00 in0.0 mm
12:17 AM 68.2°F20.1°C 49.9°F9.9°C 52% Calm Calm -- 27.73 in939.0 mb 0.00 in0.0 mm 0.00 in/hr0.0 mm/hr 0.00 in0.0 mm
12:22 AM 68.0°F20.0°C 50.3°F10.2°C 53% Calm Calm -- 27.73 in939.0 mb 0.00 in0.0 mm 0.00 in/hr0.0 mm/hr 0.00 in0.0 mm
12:27 AM 68.0°F20.0°C 50.2°F10.1°C 53% 0.3 mph SE0.5 kmh SE 2.5 mph4.0 kmh 27.73 in939.0 mb 0.00 in0.0 mm 0.00 in/hr0.0 mm/hr 0.00 in0.0 mm
12:32 AM 67.8°F19.9°C 50.1°F10.1°C 53% Calm Calm 2.5 mph4.0 kmh 27.73 in939.0 mb 0.00 in0.0 mm 0.00 in/hr0.0 mm/hr 0.00 in0.0 mm
12:37 AM 67.8°F19.9°C 50.1°F10.1°C 53% Calm Calm 2.0 mph3.2 kmh 27.73 in939.0 mb 0.00 in0.0 mm 0.00 in/hr0.0 mm/hr 0.00 in0.0 mm
12:42 AM 67.6°F19.8°C 49.9°F9.9°C 53% Calm Calm 2.0 mph3.2 kmh 27.73 in939.0 mb 0.00 in0.0 mm 0.00 in/hr0.0 mm/hr 0.00 in0.0 mm
12:47 AM 67.6°F19.8°C 49.9°F9.9°C 53% Calm Calm -- 27.73 in939.0 mb 0.00 in0.0 mm 0.00 in/hr0.0 mm/hr 0.00 in0.0 mm
12:52 AM 67.5°F19.7°C 49.8°F9.9°C 53% Calm Calm -- 27.73 in939.0 mb 0.00 in0.0 mm 0.00 in/hr0.0 mm/hr 0.00 in0.0 mm
12:57 AM 67.4°F19.7°C 49.7°F9.8°C 53% Calm Calm -- 27.73 in939.0 mb 0.00 in0.0 mm 0.00 in/hr0.0 mm/hr 0.00 in0.0 mm
01:02 AM 67.3°F19.6°C 49.6°F9.8°C 53% Calm Calm -- 27.73 in939.0 mb 0.00 in0.0 mm 0.00 in/hr0.0 mm/hr 0.00 in0.0 mm
01:07 AM 67.2°F19.6°C 49.6°F9.8°C 53% Calm Calm -- 27.73 in939.0 mb 0.00 in0.0 mm 0.00 in/hr0.0 mm/hr 0.00 in0.0 mm
01:12 AM 67.1°F19.5°C 49.4°F9.7°C 53% Calm Calm -- 27.73 in939.0 mb 0.00 in0.0 mm 0.00 in/hr0.0 mm/hr 0.00 in0.0 mm
01:17 AM 67.1°F19.5°C 49.7°F9.8°C 54% Calm Calm -- 27.73 in939.0 mb 0.00 in0.0 mm 0.00 in/hr0.0 mm/hr 0.00 in0.0 mm
01:22 AM 66.9°F19.4°C 49.8°F9.9°C 54% Calm Calm -- 27.73 in939.0 mb 0.00 in0.0 mm 0.00 in/hr0.0 mm/hr 0.00 in0.0 mm
01:27 AM 66.9°F19.4°C 49.7°F9.8°C 54% Calm Calm -- 27.73 in939.0 mb 0.00 in0.0 mm 0.00 in/hr0.0 mm/hr 0.00 in0.0 mm
01:32 AM 66.7°F19.3°C 49.6°F9.8°C 54% Calm Calm -- 27.73 in939.0 mb 0.00 in0.0 mm 0.00 in/hr0.0 mm/hr 0.00 in0.0 mm
01:37 AM 66.7°F19.3°C 49.6°F9.8°C 54% Calm Calm -- 27.73 in939.0 mb 0.00 in0.0 mm 0.00 in/hr0.0 mm/hr 0.00 in0.0 mm
01:42 AM 66.6°F19.2°C 49.4°F9.7°C 54% Calm Calm -- 27.73 in939.0 mb 0.00 in0.0 mm 0.00 in/hr0.0 mm/hr 0.00 in0.0 mm
01:47 AM 66.6°F19.2°C 49.4°F9.7°C 54% Calm Calm -- 27.73 in939.0 mb 0.00 in0.0 mm 0.00 in/hr0.0 mm/hr 0.00 in0.0 mm
01:52 AM 66.4°F19.1°C 49.3°F9.6°C 54% Calm Calm -- 27.73 in939.0 mb 0.00 in0.0 mm 0.00 in/hr0.0 mm/hr 0.00 in0.0 mm
01:57 AM 66.4°F19.1°C 49.3°F9.6°C 54% Calm Calm -- 27.73 in939.0 mb 0.00 in0.0 mm 0.00 in/hr0.0 mm/hr 0.00 in0.0 mm
02:02 AM 66.2°F19.0°C 49.1°F9.5°C 54% Calm Calm -- 27.70 in938.0 mb 0.00 in0.0 mm 0.00 in/hr0.0 mm/hr 0.00 in0.0 mm
02:07 AM 66.2°F19.0°C 49.1°F9.5°C 54% Calm Calm -- 27.70 in938.0 mb 0.00 in0.0 mm 0.00 in/hr0.0 mm/hr 0.00 in0.0 mm
02:12 AM 66.1°F18.9°C 49.0°F9.4°C 54% Calm Calm -- 27.70 in938.0 mb 0.00 in0.0 mm 0.00 in/hr0.0 mm/hr 0.00 in0.0 mm
02:17 AM 66.0°F18.9°C 49.2°F9.6°C 55% Calm Calm -- 27.73 in939.0 mb 0.00 in0.0 mm 0.00 in/hr0.0 mm/hr 0.00 in0.0 mm
02:22 AM 65.9°F18.8°C 49.3°F9.6°C 55% Calm Calm -- 27.73 in939.0 mb 0.00 in0.0 mm 0.00 in/hr0.0 mm/hr 0.00 in0.0 mm
02:27 AM 65.8°F18.8°C 49.2°F9.6°C 55% Calm Calm -- 27.73 in939.0 mb 0.00 in0.0 mm 0.00 in/hr0.0 mm/hr 0.00 in0.0 mm
02:32 AM 65.8°F18.8°C 49.2°F9.6°C 55% Calm Calm -- 27.73 in939.0 mb 0.00 in0.0 mm 0.00 in/hr0.0 mm/hr 0.00 in0.0 mm
02:37 AM 65.7°F18.7°C 49.1°F9.5°C 55% Calm Calm -- 27.73 in939.0 mb 0.00 in0.0 mm 0.00 in/hr0.0 mm/hr 0.00 in0.0 mm
02:42 AM 65.6°F18.7°C 49.0°F9.4°C 55% Calm Calm -- 27.73 in939.0 mb 0.00 in0.0 mm 0.00 in/hr0.0 mm/hr 0.00 in0.0 mm
02:47 AM 65.5°F18.6°C 48.9°F9.4°C 55% Calm Calm -- 27.70 in938.0 mb 0.00 in0.0 mm 0.00 in/hr0.0 mm/hr 0.00 in0.0 mm
02:52 AM 65.4°F18.6°C 48.9°F9.4°C 55% Calm Calm -- 27.70 in938.0 mb 0.00 in0.0 mm 0.00 in/hr0.0 mm/hr 0.00 in0.0 mm
02:57 AM 65.3°F18.5°C 48.7°F9.3°C 55% Calm Calm -- 27.70 in938.0 mb 0.00 in0.0 mm 0.00 in/hr0.0 mm/hr 0.00 in0.0 mm
03:02 AM 65.2°F18.4°C 48.7°F9.3°C 55% Calm Calm -- 27.70 in938.0 mb 0.00 in0.0 mm 0.00 in/hr0.0 mm/hr 0.00 in0.0 mm
03:07 AM 65.1°F18.4°C 48.6°F9.2°C 55% Calm Calm -- 27.70 in938.0 mb 0.00 in0.0 mm 0.00 in/hr0.0 mm/hr 0.00 in0.0 mm
03:12 AM 65.1°F18.4°C 48.6°F9.2°C 55% Calm Calm -- 27.70 in938.0 mb 0.00 in0.0 mm 0.00 in/hr0.0 mm/hr 0.00 in0.0 mm
03:17 AM 64.9°F18.3°C 48.4°F9.1°C 55% Calm Calm -- 27.70 in938.0 mb 0.00 in0.0 mm 0.00 in/hr0.0 mm/hr 0.00 in0.0 mm
03:22 AM 64.9°F18.3°C 48.4°F9.1°C 55% Calm Calm -- 27.70 in938.0 mb 0.00 in0.0 mm 0.00 in/hr0.0 mm/hr 0.00 in0.0 mm
03:27 AM 64.8°F18.2°C 48.2°F9.0°C 55% Calm Calm -- 27.70 in938.0 mb 0.00 in0.0 mm 0.00 in/hr0.0 mm/hr 0.00 in0.0 mm
03:32 AM 64.8°F18.2°C 48.2°F9.0°C 55% Calm Calm -- 27.70 in938.0 mb 0.00 in0.0 mm 0.00 in/hr0.0 mm/hr 0.00 in0.0 mm
03:37 AM 64.6°F18.1°C 48.1°F8.9°C 55% Calm Calm -- 27.70 in938.0 mb 0.00 in0.0 mm 0.00 in/hr0.0 mm/hr 0.00 in0.0 mm
03:42 AM 64.5°F18.1°C 48.1°F8.9°C 56% Calm Calm -- 27.70 in938.0 mb 0.00 in0.0 mm 0.00 in/hr0.0 mm/hr 0.00 in0.0 mm
03:47 AM 64.4°F18.0°C 48.4°F9.1°C 56% Calm Calm -- 27.70 in938.0 mb 0.00 in0.0 mm 0.00 in/hr0.0 mm/hr 0.00 in0.0 mm
03:52 AM 64.4°F18.0°C 48.4°F9.1°C 56% Calm Calm -- 27.70 in938.0 mb 0.00 in0.0 mm 0.00 in/hr0.0 mm/hr 0.00 in0.0 mm
03:57 AM 64.3°F17.9°C 48.3°F9.1°C 56% Calm Calm -- 27.70 in938.0 mb 0.00 in0.0 mm 0.00 in/hr0.0 mm/hr 0.00 in0.0 mm
04:02 AM 64.2°F17.9°C 48.2°F9.0°C 56% Calm Calm -- 27.70 in938.0 mb 0.00 in0.0 mm 0.00 in/hr0.0 mm/hr 0.00 in0.0 mm
04:07 AM 64.2°F17.9°C 48.2°F9.0°C 56% Calm Calm -- 27.70 in938.0 mb 0.00 in0.0 mm 0.00 in/hr0.0 mm/hr 0.00 in0.0 mm
04:12 AM 64.1°F17.8°C 48.1°F8.9°C 56% Calm Calm -- 27.70 in938.0 mb 0.00 in0.0 mm 0.00 in/hr0.0 mm/hr 0.00 in0.0 mm
04:17 AM 64.0°F17.8°C 48.0°F8.9°C 56% Calm Calm -- 27.70 in938.0 mb 0.00 in0.0 mm 0.00 in/hr0.0 mm/hr 0.00 in0.0 mm
04:22 AM 63.9°F17.7°C 47.9°F8.8°C 56% Calm Calm -- 27.70 in938.0 mb 0.00 in0.0 mm 0.00 in/hr0.0 mm/hr 0.00 in0.0 mm
04:27 AM 63.9°F17.7°C 47.9°F8.8°C 56% Calm Calm -- 27.70 in938.0 mb 0.00 in0.0 mm 0.00 in/hr0.0 mm/hr 0.00 in0.0 mm
04:32 AM 63.8°F17.7°C 47.9°F8.8°C 56% Calm Calm -- 27.70 in938.0 mb 0.00 in0.0 mm 0.00 in/hr0.0 mm/hr 0.00 in0.0 mm
04:37 AM 63.7°F17.6°C 47.7°F8.7°C 56% Calm Calm -- 27.70 in938.0 mb 0.00 in0.0 mm 0.00 in/hr0.0 mm/hr 0.00 in0.0 mm
04:42 AM 63.6°F17.6°C 47.7°F8.7°C 56% Calm Calm -- 27.70 in938.0 mb 0.00 in0.0 mm 0.00 in/hr0.0 mm/hr 0.00 in0.0 mm
04:47 AM 63.5°F17.5°C 47.5°F8.6°C 56% Calm Calm -- 27.70 in938.0 mb 0.00 in0.0 mm 0.00 in/hr0.0 mm/hr 0.00 in0.0 mm
04:52 AM 63.5°F17.5°C 47.5°F8.6°C 56% Calm Calm -- 27.70 in938.0 mb 0.00 in0.0 mm 0.00 in/hr0.0 mm/hr 0.00 in0.0 mm
04:57 AM 63.4°F17.4°C 47.5°F8.6°C 56% Calm Calm -- 27.70 in938.0 mb 0.00 in0.0 mm 0.00 in/hr0.0 mm/hr 0.00 in0.0 mm
05:02 AM 63.3°F17.4°C 47.4°F8.6°C 56% Calm Calm -- 27.70 in938.0 mb 0.00 in0.0 mm 0.00 in/hr0.0 mm/hr 0.00 in0.0 mm
05:07 AM 63.2°F17.3°C 47.3°F8.5°C 56% Calm Calm -- 27.70 in938.0 mb 0.00 in0.0 mm 0.00 in/hr0.0 mm/hr 0.00 in0.0 mm
05:12 AM 63.1°F17.3°C 47.2°F8.4°C 56% Calm Calm -- 27.70 in938.0 mb 0.00 in0.0 mm 0.00 in/hr0.0 mm/hr 0.00 in0.0 mm
05:17 AM 63.1°F17.3°C 47.2°F8.4°C 56% Calm Calm -- 27.70 in938.0 mb 0.00 in0.0 mm 0.00 in/hr0.0 mm/hr 0.00 in0.0 mm
05:22 AM 63.1°F17.3°C 47.1°F8.4°C 56% Calm Calm -- 27.70 in938.0 mb 0.00 in0.0 mm 0.00 in/hr0.0 mm/hr 0.00 in0.0 mm
05:27 AM 63.0°F17.2°C 47.2°F8.4°C 57% Calm Calm -- 27.70 in938.0 mb 0.00 in0.0 mm 0.00 in/hr0.0 mm/hr 0.00 in0.0 mm
05:32 AM 63.0°F17.2°C 47.5°F8.6°C 57% Calm Calm 2.0 mph3.2 kmh 27.70 in938.0 mb 0.00 in0.0 mm 0.00 in/hr0.0 mm/hr 0.00 in0.0 mm
05:37 AM 63.0°F17.2°C 47.5°F8.6°C 57% Calm Calm 2.0 mph3.2 kmh 27.70 in938.0 mb 0.00 in0.0 mm 0.00 in/hr0.0 mm/hr 0.00 in0.0 mm
05:42 AM 63.0°F17.2°C 47.5°F8.6°C 57% Calm Calm -- 27.70 in938.0 mb 0.00 in0.0 mm 0.00 in/hr0.0 mm/hr 0.00 in0.0 mm
05:47 AM 63.0°F17.2°C 47.5°F8.6°C 57% 0.8 mph SW1.3 kmh SW 2.7 mph4.3 kmh 27.70 in938.0 mb 0.00 in0.0 mm 0.00 in/hr0.0 mm/hr 0.00 in0.0 mm
05:52 AM 63.0°F17.2°C 47.5°F8.6°C 57% Calm Calm 2.7 mph4.3 kmh 27.70 in938.0 mb 0.00 in0.0 mm 0.00 in/hr0.0 mm/hr 0.00 in0.0 mm
05:57 AM 63.0°F17.2°C 47.5°F8.6°C 57% Calm Calm 1.1 mph1.8 kmh 27.70 in938.0 mb 0.00 in0.0 mm 0.00 in/hr0.0 mm/hr 0.00 in0.0 mm
06:02 AM 62.9°F17.2°C 47.5°F8.6°C 57% Calm Calm -- 27.73 in939.0 mb 0.00 in0.0 mm 0.00 in/hr0.0 mm/hr 0.00 in0.0 mm
06:07 AM 62.9°F17.2°C 47.4°F8.6°C 57% Calm Calm -- 27.73 in939.0 mb 0.00 in0.0 mm 0.00 in/hr0.0 mm/hr 0.00 in0.0 mm
06:12 AM 62.8°F17.1°C 47.3°F8.5°C 57% Calm Calm -- 27.73 in939.0 mb 0.00 in0.0 mm 0.00 in/hr0.0 mm/hr 0.00 in0.0 mm
06:17 AM 62.8°F17.1°C 47.3°F8.5°C 57% Calm Calm -- 27.73 in939.0 mb 0.00 in0.0 mm 0.00 in/hr0.0 mm/hr 0.00 in0.0 mm
06:22 AM 62.8°F17.1°C 47.3°F8.5°C 57% Calm Calm -- 27.73 in939.0 mb 0.00 in0.0 mm 0.00 in/hr0.0 mm/hr 0.00 in0.0 mm
06:27 AM 62.8°F17.1°C 47.3°F8.5°C 57% Calm Calm -- 27.73 in939.0 mb 0.00 in0.0 mm 0.00 in/hr0.0 mm/hr 0.00 in0.0 mm
06:32 AM 62.8°F17.1°C 47.3°F8.5°C 57% Calm Calm -- 27.73 in939.0 mb 0.00 in0.0 mm 0.00 in/hr0.0 mm/hr 0.00 in0.0 mm
06:37 AM 62.8°F17.1°C 47.3°F8.5°C 57% Calm Calm -- 27.73 in939.0 mb 0.00 in0.0 mm 0.00 in/hr0.0 mm/hr 0.00 in0.0 mm
06:42 AM 62.8°F17.1°C 47.3°F8.5°C 57% Calm Calm -- 27.73 in939.0 mb 0.00 in0.0 mm 0.00 in/hr0.0 mm/hr 0.00 in0.0 mm
06:47 AM 62.8°F17.1°C 47.3°F8.5°C 57% Calm Calm -- 27.73 in939.0 mb 0.00 in0.0 mm 0.00 in/hr0.0 mm/hr 0.00 in0.0 mm
06:52 AM 62.8°F17.1°C 47.3°F8.5°C 57% Calm Calm 2.2 mph3.5 kmh 27.73 in939.0 mb 0.00 in0.0 mm 0.00 in/hr0.0 mm/hr 0.00 in0.0 mm
06:57 AM 62.8°F17.1°C 47.3°F8.5°C 57% Calm Calm 2.2 mph3.5 kmh 27.73 in939.0 mb 0.00 in0.0 mm 0.00 in/hr0.0 mm/hr 0.00 in0.0 mm
07:02 AM 62.9°F17.2°C 47.8°F8.8°C 58% 0.1 mph S0.2 kmh S 2.7 mph4.3 kmh 27.73 in939.0 mb 0.00 in0.0 mm 0.00 in/hr0.0 mm/hr 0.00 in0.0 mm
07:07 AM 63.1°F17.3°C 48.1°F8.9°C 58% Calm Calm 2.7 mph4.3 kmh 27.73 in939.0 mb 0.00 in0.0 mm 0.00 in/hr0.0 mm/hr 0.00 in0.0 mm
07:12 AM 63.2°F17.3°C 48.2°F9.0°C 58% 0.2 mph SSE0.3 kmh SSE 2.0 mph3.2 kmh 27.73 in939.0 mb 0.00 in0.0 mm 0.00 in/hr0.0 mm/hr 0.00 in0.0 mm
07:17 AM 63.5°F17.5°C 48.3°F9.1°C 57% Calm Calm 1.6 mph2.6 kmh 27.73 in939.0 mb 0.00 in0.0 mm 0.00 in/hr0.0 mm/hr 0.00 in0.0 mm
07:22 AM 63.8°F17.7°C 48.3°F9.1°C 57% Calm Calm 1.6 mph2.6 kmh 27.73 in939.0 mb 0.00 in0.0 mm 0.00 in/hr0.0 mm/hr 0.00 in0.0 mm
07:27 AM 64.2°F17.9°C 48.6°F9.2°C 57% 0.7 mph ESE1.1 kmh ESE 2.0 mph3.2 kmh 27.73 in939.0 mb 0.00 in0.0 mm 0.00 in/hr0.0 mm/hr 0.00 in0.0 mm
07:32 AM 64.5°F18.1°C 48.9°F9.4°C 57% 0.4 mph SW0.6 kmh SW 2.0 mph3.2 kmh 27.70 in938.0 mb 0.00 in0.0 mm 0.00 in/hr0.0 mm/hr 0.00 in0.0 mm
07:37 AM 64.9°F18.3°C 48.9°F9.4°C 56% Calm Calm 2.0 mph3.2 kmh 27.70 in938.0 mb 0.00 in0.0 mm 0.00 in/hr0.0 mm/hr 0.00 in0.0 mm
07:42 AM 65.3°F18.5°C 49.2°F9.6°C 56% 1.1 mph SE1.8 kmh SE 2.5 mph4.0 kmh 27.70 in938.0 mb 0.00 in0.0 mm 0.00 in/hr0.0 mm/hr 0.00 in0.0 mm
07:47 AM 65.7°F18.7°C 49.6°F9.8°C 56% 0.5 mph E0.8 kmh E 2.5 mph4.0 kmh 27.70 in938.0 mb 0.00 in0.0 mm 0.00 in/hr0.0 mm/hr 0.00 in0.0 mm
07:52 AM 66.1°F18.9°C 49.4°F9.7°C 55% 1.1 mph S1.8 kmh S 2.2 mph3.5 kmh 27.70 in938.0 mb 0.00 in0.0 mm 0.00 in/hr0.0 mm/hr 0.00 in0.0 mm
07:57 AM 66.5°F19.2°C 49.5°F9.7°C 54% 0.8 mph SE1.3 kmh SE 3.1 mph5.0 kmh 27.70 in938.0 mb 0.00 in0.0 mm 0.00 in/hr0.0 mm/hr 0.00 in0.0 mm
08:02 AM 66.9°F19.4°C 49.7°F9.8°C 54% 1.0 mph S1.6 kmh S 3.1 mph5.0 kmh 27.70 in938.0 mb 0.00 in0.0 mm 0.00 in/hr0.0 mm/hr 0.00 in0.0 mm
08:07 AM 67.3°F19.6°C 49.9°F9.9°C 53% 1.7 mph SSE2.7 kmh SSE 3.1 mph5.0 kmh 27.70 in938.0 mb 0.00 in0.0 mm 0.00 in/hr0.0 mm/hr 0.00 in0.0 mm
08:12 AM 67.7°F19.8°C 50.0°F10.0°C 53% Calm Calm 2.5 mph4.0 kmh 27.70 in938.0 mb 0.00 in0.0 mm 0.00 in/hr0.0 mm/hr 0.00 in0.0 mm
08:17 AM 68.2°F20.1°C 50.1°F10.1°C 52% 0.9 mph SE1.4 kmh SE 3.1 mph5.0 kmh 27.70 in938.0 mb 0.00 in0.0 mm 0.00 in/hr0.0 mm/hr 0.00 in0.0 mm
08:22 AM 68.6°F20.3°C 50.1°F10.1°C 51% Calm Calm 3.1 mph5.0 kmh 27.70 in938.0 mb 0.00 in0.0 mm 0.00 in/hr0.0 mm/hr 0.00 in0.0 mm
08:27 AM 69.1°F20.6°C 50.2°F10.1°C 51% 0.6 mph ESE1.0 kmh ESE 3.1 mph5.0 kmh 27.70 in938.0 mb 0.00 in0.0 mm 0.00 in/hr0.0 mm/hr 0.00 in0.0 mm
08:32 AM 69.5°F20.8°C 50.4°F10.2°C 50% 0.8 mph SW1.3 kmh SW 3.1 mph5.0 kmh 27.70 in938.0 mb 0.00 in0.0 mm 0.00 in/hr0.0 mm/hr 0.00 in0.0 mm
08:37 AM 70.0°F21.1°C 50.5°F10.3°C 50% 2.0 mph WSW3.2 kmh WSW 3.8 mph6.1 kmh 27.70 in938.0 mb 0.00 in0.0 mm 0.00 in/hr0.0 mm/hr 0.00 in0.0 mm
08:42 AM 70.4°F21.3°C 50.4°F10.2°C 49% 0.9 mph SSE1.4 kmh SSE 3.8 mph6.1 kmh 27.70 in938.0 mb 0.00 in0.0 mm 0.00 in/hr0.0 mm/hr 0.00 in0.0 mm
08:47 AM 70.9°F21.6°C 50.8°F10.4°C 49% 1.7 mph ENE2.7 kmh ENE 3.6 mph5.8 kmh 27.70 in938.0 mb 0.00 in0.0 mm 0.00 in/hr0.0 mm/hr 0.00 in0.0 mm
08:52 AM 71.4°F21.9°C 50.8°F10.4°C 48% 2.2 mph SSE3.5 kmh SSE 4.0 mph6.4 kmh 27.70 in938.0 mb 0.00 in0.0 mm 0.00 in/hr0.0 mm/hr 0.00 in0.0 mm
08:57 AM 71.8°F22.1°C 50.8°F10.4°C 47% 2.5 mph SW4.0 kmh SW 4.0 mph6.4 kmh 27.70 in938.0 mb 0.00 in0.0 mm 0.00 in/hr0.0 mm/hr 0.00 in0.0 mm
09:02 AM 72.3°F22.4°C 50.9°F10.5°C 47% 1.1 mph NE1.8 kmh NE 3.8 mph6.1 kmh 27.70 in938.0 mb 0.00 in0.0 mm 0.00 in/hr0.0 mm/hr 0.00 in0.0 mm
09:07 AM 72.7°F22.6°C 51.1°F10.6°C 46% 0.6 mph SW1.0 kmh SW 3.8 mph6.1 kmh 27.70 in938.0 mb 0.00 in0.0 mm 0.00 in/hr0.0 mm/hr 0.00 in0.0 mm
09:12 AM 73.2°F22.9°C 51.2°F10.7°C 46% 2.1 mph S3.4 kmh S 4.3 mph6.9 kmh 27.70 in938.0 mb 0.00 in0.0 mm 0.00 in/hr0.0 mm/hr 0.00 in0.0 mm
09:17 AM 73.6°F23.1°C 51.2°F10.7°C 45% 2.2 mph WSW3.5 kmh WSW 4.3 mph6.9 kmh 27.67 in937.0 mb 0.00 in0.0 mm 0.00 in/hr0.0 mm/hr 0.00 in0.0 mm
09:22 AM 74.1°F23.4°C 51.4°F10.8°C 45% 1.3 mph NE2.1 kmh NE 4.0 mph6.4 kmh 27.67 in937.0 mb 0.00 in0.0 mm 0.00 in/hr0.0 mm/hr 0.00 in0.0 mm
09:27 AM 74.5°F23.6°C 51.7°F10.9°C 45% 1.1 mph NE1.8 kmh NE 4.0 mph6.4 kmh 27.67 in937.0 mb 0.00 in0.0 mm 0.00 in/hr0.0 mm/hr 0.00 in0.0 mm
09:32 AM 74.9°F23.8°C 51.5°F10.8°C 43% 1.4 mph S2.3 kmh S 4.0 mph6.4 kmh 27.67 in937.0 mb 0.00 in0.0 mm 0.00 in/hr0.0 mm/hr 0.00 in0.0 mm
09:37 AM 74.7°F23.7°C 49.6°F9.8°C 41% 2.3 mph S3.7 kmh S 4.3 mph6.9 kmh 27.67 in937.0 mb 0.00 in0.0 mm 0.00 in/hr0.0 mm/hr 0.00 in0.0 mm
09:42 AM 74.0°F23.3°C 50.7°F10.4°C 45% 2.5 mph SE4.0 kmh SE 4.9 mph7.9 kmh 27.67 in937.0 mb 0.00 in0.0 mm 0.00 in/hr0.0 mm/hr 0.00 in0.0 mm
09:47 AM 74.4°F23.6°C 51.6°F10.9°C 45% 2.3 mph W3.7 kmh W 4.9 mph7.9 kmh 27.67 in937.0 mb 0.00 in0.0 mm 0.00 in/hr0.0 mm/hr 0.00 in0.0 mm
09:52 AM 74.6°F23.7°C 50.0°F10.0°C 42% 2.6 mph W4.2 kmh W 4.5 mph7.2 kmh 27.67 in937.0 mb 0.00 in0.0 mm 0.00 in/hr0.0 mm/hr 0.00 in0.0 mm
09:57 AM 74.0°F23.3°C 50.9°F10.5°C 45% 0.6 mph SE1.0 kmh SE 4.3 mph6.9 kmh 27.67 in937.0 mb 0.00 in0.0 mm 0.00 in/hr0.0 mm/hr 0.00 in0.0 mm
10:02 AM 74.3°F23.5°C 51.5°F10.8°C 45% 2.4 mph E3.9 kmh E 4.3 mph6.9 kmh 27.67 in937.0 mb 0.00 in0.0 mm 0.00 in/hr0.0 mm/hr 0.00 in0.0 mm
10:07 AM 74.6°F23.7°C 49.9°F9.9°C 41% 1.7 mph ENE2.7 kmh ENE 4.3 mph6.9 kmh 27.67 in937.0 mb 0.00 in0.0 mm 0.00 in/hr0.0 mm/hr 0.00 in0.0 mm
10:12 AM 74.6°F23.7°C 51.2°F10.7°C 45% 2.3 mph ESE3.7 kmh ESE 3.8 mph6.1 kmh 27.67 in937.0 mb 0.00 in0.0 mm 0.00 in/hr0.0 mm/hr 0.00 in0.0 mm
10:17 AM 74.8°F23.8°C 51.0°F10.6°C 41% 1.4 mph SE2.3 kmh SE 4.0 mph6.4 kmh 27.67 in937.0 mb 0.00 in0.0 mm 0.00 in/hr0.0 mm/hr 0.00 in0.0 mm
10:22 AM 74.7°F23.7°C 50.4°F10.2°C 45% 2.8 mph ENE4.5 kmh ENE 4.3 mph6.9 kmh 27.67 in937.0 mb 0.00 in0.0 mm 0.00 in/hr0.0 mm/hr 0.00 in0.0 mm
10:27 AM 74.9°F23.8°C 52.1°F11.2°C 44% 2.0 mph NNE3.2 kmh NNE 4.3 mph6.9 kmh 27.67 in937.0 mb 0.00 in0.0 mm 0.00 in/hr0.0 mm/hr 0.00 in0.0 mm
10:32 AM 74.8°F23.8°C 49.9°F9.9°C 43% 1.5 mph ENE2.4 kmh ENE 3.6 mph5.8 kmh 27.67 in937.0 mb 0.00 in0.0 mm 0.00 in/hr0.0 mm/hr 0.00 in0.0 mm
10:37 AM 74.3°F23.5°C 51.5°F10.8°C 45% 1.8 mph ENE2.9 kmh ENE 3.4 mph5.5 kmh 27.67 in937.0 mb 0.00 in0.0 mm 0.00 in/hr0.0 mm/hr 0.00 in0.0 mm
10:42 AM 74.6°F23.7°C 51.9°F11.1°C 45% 2.7 mph E4.3 kmh E 5.4 mph8.7 kmh 27.67 in937.0 mb 0.00 in0.0 mm 0.00 in/hr0.0 mm/hr 0.00 in0.0 mm
10:47 AM 74.6°F23.7°C 49.7°F9.8°C 41% 2.5 mph E4.0 kmh E 5.4 mph8.7 kmh 27.67 in937.0 mb 0.00 in0.0 mm 0.00 in/hr0.0 mm/hr 0.00 in0.0 mm
10:52 AM 74.5°F23.6°C 51.2°F10.7°C 45% 1.6 mph E2.6 kmh E 5.4 mph8.7 kmh 27.67 in937.0 mb 0.00 in0.0 mm 0.00 in/hr0.0 mm/hr 0.00 in0.0 mm
10:57 AM 74.8°F23.8°C 51.4°F10.8°C 43% 1.6 mph ENE2.6 kmh ENE 4.3 mph6.9 kmh 27.67 in937.0 mb 0.00 in0.0 mm 0.00 in/hr0.0 mm/hr 0.00 in0.0 mm
11:02 AM 74.7°F23.7°C 49.9°F9.9°C 44% 1.6 mph WSW2.6 kmh WSW 3.8 mph6.1 kmh 27.67 in937.0 mb 0.00 in0.0 mm 0.00 in/hr0.0 mm/hr 0.00 in0.0 mm
11:07 AM 74.8°F23.8°C 52.0°F11.1°C 45% 1.8 mph SSW2.9 kmh SSW 3.1 mph5.0 kmh 27.67 in937.0 mb 0.00 in0.0 mm 0.00 in/hr0.0 mm/hr 0.00 in0.0 mm
11:12 AM 74.9°F23.8°C 50.6°F10.3°C 41% 0.8 mph SSW1.3 kmh SSW 3.4 mph5.5 kmh 27.67 in937.0 mb 0.00 in0.0 mm 0.00 in/hr0.0 mm/hr 0.00 in0.0 mm
11:17 AM 74.7°F23.7°C 50.5°F10.3°C 45% 0.6 mph SSW1.0 kmh SSW 3.4 mph5.5 kmh 27.67 in937.0 mb 0.00 in0.0 mm 0.00 in/hr0.0 mm/hr 0.00 in0.0 mm
11:22 AM 74.9°F23.8°C 52.2°F11.2°C 45% 0.2 mph SSW0.3 kmh SSW 2.7 mph4.3 kmh 27.67 in937.0 mb 0.00 in0.0 mm 0.00 in/hr0.0 mm/hr 0.00 in0.0 mm
11:27 AM 74.9°F23.8°C 50.1°F10.1°C 39% 1.5 mph S2.4 kmh S 2.9 mph4.7 kmh 27.67 in937.0 mb 0.00 in0.0 mm 0.00 in/hr0.0 mm/hr 0.00 in0.0 mm
11:32 AM 74.7°F23.7°C 50.8°F10.4°C 45% 2.8 mph N4.5 kmh N 4.3 mph6.9 kmh 27.64 in936.0 mb 0.00 in0.0 mm 0.00 in/hr0.0 mm/hr 0.00 in0.0 mm
11:37 AM 74.9°F23.8°C 51.7°F10.9°C 43% 1.7 mph ESE2.7 kmh ESE 4.3 mph6.9 kmh 27.64 in936.0 mb 0.00 in0.0 mm 0.00 in/hr0.0 mm/hr 0.00 in0.0 mm
11:42 AM 74.7°F23.7°C 49.0°F9.4°C 41% 2.5 mph ENE4.0 kmh ENE 4.0 mph6.4 kmh 27.64 in936.0 mb 0.00 in0.0 mm 0.00 in/hr0.0 mm/hr 0.00 in0.0 mm
11:47 AM 74.2°F23.4°C 51.4°F10.8°C 46% 2.9 mph ENE4.7 kmh ENE 5.4 mph8.7 kmh 27.64 in936.0 mb 0.00 in0.0 mm 0.00 in/hr0.0 mm/hr 0.00 in0.0 mm
11:52 AM 74.6°F23.7°C 51.0°F10.6°C 41% 1.8 mph NE2.9 kmh NE 5.4 mph8.7 kmh 27.64 in936.0 mb 0.00 in0.0 mm 0.00 in/hr0.0 mm/hr 0.00 in0.0 mm
11:57 AM 74.8°F23.8°C 48.7°F9.3°C 41% 1.5 mph NNE2.4 kmh NNE 3.1 mph5.0 kmh 27.64 in936.0 mb 0.00 in0.0 mm 0.00 in/hr0.0 mm/hr 0.00 in0.0 mm
12:02 PM 75.0°F23.9°C 51.8°F11.0°C 45% 1.8 mph NNW2.9 kmh NNW 4.3 mph6.9 kmh 27.67 in937.0 mb 0.00 in0.0 mm 0.00 in/hr0.0 mm/hr 0.00 in0.0 mm
12:07 PM 75.2°F24.0°C 50.0°F10.0°C 38% 1.7 mph E2.7 kmh E 4.3 mph6.9 kmh 27.67 in937.0 mb 0.00 in0.0 mm 0.00 in/hr0.0 mm/hr 0.00 in0.0 mm
12:12 PM 74.6°F23.7°C 50.3°F10.2°C 45% 0.4 mph NE0.6 kmh NE 3.4 mph5.5 kmh 27.67 in937.0 mb 0.00 in0.0 mm 0.00 in/hr0.0 mm/hr 0.00 in0.0 mm
12:17 PM 74.4°F23.6°C 51.7°F10.9°C 44% 1.5 mph E2.4 kmh E 3.1 mph5.0 kmh 27.67 in937.0 mb 0.00 in0.0 mm 0.00 in/hr0.0 mm/hr 0.00 in0.0 mm
12:22 PM 74.6°F23.7°C 49.0°F9.4°C 39% 0.9 mph ESE1.4 kmh ESE 3.6 mph5.8 kmh 27.67 in937.0 mb 0.00 in0.0 mm 0.00 in/hr0.0 mm/hr 0.00 in0.0 mm
12:27 PM 74.2°F23.4°C 50.5°F10.3°C 45% 1.6 mph SW2.6 kmh SW 4.0 mph6.4 kmh 27.67 in937.0 mb 0.00 in0.0 mm 0.00 in/hr0.0 mm/hr 0.00 in0.0 mm
12:32 PM 74.3°F23.5°C 51.5°F10.8°C 43% 2.8 mph NE4.5 kmh NE 4.3 mph6.9 kmh 27.64 in936.0 mb 0.00 in0.0 mm 0.00 in/hr0.0 mm/hr 0.00 in0.0 mm
12:37 PM 74.4°F23.6°C 48.1°F8.9°C 40% 2.6 mph NW4.2 kmh NW 4.9 mph7.9 kmh 27.64 in936.0 mb 0.00 in0.0 mm 0.00 in/hr0.0 mm/hr 0.00 in0.0 mm
12:42 PM 74.3°F23.5°C 51.0°F10.6°C 45% 1.5 mph NE2.4 kmh NE 4.9 mph7.9 kmh 27.64 in936.0 mb 0.00 in0.0 mm 0.00 in/hr0.0 mm/hr 0.00 in0.0 mm
12:47 PM 74.5°F23.6°C 51.1°F10.6°C 42% 2.1 mph E3.4 kmh E 4.0 mph6.4 kmh 27.67 in937.0 mb 0.00 in0.0 mm 0.00 in/hr0.0 mm/hr 0.00 in0.0 mm
12:52 PM 74.3°F23.5°C 48.9°F9.4°C 43% 0.7 mph E1.1 kmh E 3.8 mph6.1 kmh 27.67 in937.0 mb 0.00 in0.0 mm 0.00 in/hr0.0 mm/hr 0.00 in0.0 mm
12:57 PM 73.9°F23.3°C 51.2°F10.7°C 46% 2.0 mph ESE3.2 kmh ESE 4.7 mph7.6 kmh 27.67 in937.0 mb 0.00 in0.0 mm 0.00 in/hr0.0 mm/hr 0.00 in0.0 mm
01:02 PM 74.1°F23.4°C 51.1°F10.6°C 42% 1.4 mph NE2.3 kmh NE 4.7 mph7.6 kmh 27.64 in936.0 mb 0.00 in0.0 mm 0.00 in/hr0.0 mm/hr 0.00 in0.0 mm
01:07 PM 74.1°F23.4°C 49.3°F9.6°C 43% 2.3 mph NE3.7 kmh NE 3.8 mph6.1 kmh 27.64 in936.0 mb 0.00 in0.0 mm 0.00 in/hr0.0 mm/hr 0.00 in0.0 mm
01:12 PM 74.2°F23.4°C 51.3°F10.7°C 45% 1.2 mph ENE1.9 kmh ENE 3.8 mph6.1 kmh 27.64 in936.0 mb 0.00 in0.0 mm 0.00 in/hr0.0 mm/hr 0.00 in0.0 mm
01:17 PM 74.5°F23.6°C 51.7°F10.9°C 45% 2.2 mph NE3.5 kmh NE 3.4 mph5.5 kmh 27.70 in938.0 mb 0.00 in0.0 mm 0.00 in/hr0.0 mm/hr 0.00 in0.0 mm
01:22 PM 74.2°F23.4°C 49.2°F9.6°C 41% 0.1 mph NE0.2 kmh NE 3.4 mph5.5 kmh 27.70 in938.0 mb 0.00 in0.0 mm 0.00 in/hr0.0 mm/hr 0.00 in0.0 mm
01:27 PM 73.9°F23.3°C 50.4°F10.2°C 45% Calm Calm 1.6 mph2.6 kmh 27.70 in938.0 mb 0.00 in0.0 mm 0.00 in/hr0.0 mm/hr 0.00 in0.0 mm
01:32 PM 74.0°F23.3°C 51.4°F10.8°C 45% 0.9 mph S1.4 kmh S 2.7 mph4.3 kmh 27.67 in937.0 mb 0.00 in0.0 mm 0.00 in/hr0.0 mm/hr 0.00 in0.0 mm
01:37 PM 74.3°F23.5°C 51.6°F10.9°C 45% Calm Calm 2.7 mph4.3 kmh 27.67 in937.0 mb 0.00 in0.0 mm 0.00 in/hr0.0 mm/hr 0.00 in0.0 mm
01:42 PM 74.2°F23.4°C 49.5°F9.7°C 41% 0.7 mph ESE1.1 kmh ESE 2.5 mph4.0 kmh 27.67 in937.0 mb 0.00 in0.0 mm 0.00 in/hr0.0 mm/hr 0.00 in0.0 mm
01:47 PM 73.9°F23.3°C 50.4°F10.2°C 45% 1.2 mph SW1.9 kmh SW 2.5 mph4.0 kmh 27.67 in937.0 mb 0.00 in0.0 mm 0.00 in/hr0.0 mm/hr 0.00 in0.0 mm
01:52 PM 74.2°F23.4°C 51.2°F10.7°C 43% 0.8 mph E1.3 kmh E 3.6 mph5.8 kmh 27.67 in937.0 mb 0.00 in0.0 mm 0.00 in/hr0.0 mm/hr 0.00 in0.0 mm
01:57 PM 74.2°F23.4°C 48.9°F9.4°C 41% 0.3 mph SE0.5 kmh SE 6.3 mph10.1 kmh 27.67 in937.0 mb 0.00 in0.0 mm 0.00 in/hr0.0 mm/hr 0.00 in0.0 mm
02:02 PM 74.3°F23.5°C 50.6°F10.3°C 44% 2.1 mph SSE3.4 kmh SSE 6.3 mph10.1 kmh 27.67 in937.0 mb 0.00 in0.0 mm 0.00 in/hr0.0 mm/hr 0.00 in0.0 mm
02:07 PM 74.5°F23.6°C 50.4°F10.2°C 41% 1.1 mph S1.8 kmh S 5.6 mph9.0 kmh 27.67 in937.0 mb 0.00 in0.0 mm 0.00 in/hr0.0 mm/hr 0.00 in0.0 mm
02:12 PM 74.5°F23.6°C 48.8°F9.3°C 43% 1.0 mph S1.6 kmh S 4.3 mph6.9 kmh 27.67 in937.0 mb 0.00 in0.0 mm 0.00 in/hr0.0 mm/hr 0.00 in0.0 mm
02:17 PM 74.6°F23.7°C 51.2°F10.7°C 44% 0.9 mph NE1.4 kmh NE 2.7 mph4.3 kmh 27.67 in937.0 mb 0.00 in0.0 mm 0.00 in/hr0.0 mm/hr 0.00 in0.0 mm
02:22 PM 74.7°F23.7°C 49.2°F9.6°C 39% 1.8 mph N2.9 kmh N 2.7 mph4.3 kmh 27.67 in937.0 mb 0.00 in0.0 mm 0.00 in/hr0.0 mm/hr 0.00 in0.0 mm
02:27 PM 74.5°F23.6°C 49.9°F9.9°C 43% 1.6 mph NE2.6 kmh NE 3.6 mph5.8 kmh 27.67 in937.0 mb 0.00 in0.0 mm 0.00 in/hr0.0 mm/hr 0.00 in0.0 mm
02:32 PM 74.6°F23.7°C 51.2°F10.7°C 43% 1.1 mph NNE1.8 kmh NNE 3.6 mph5.8 kmh 27.67 in937.0 mb 0.00 in0.0 mm 0.00 in/hr0.0 mm/hr 0.00 in0.0 mm
02:37 PM 74.6°F23.7°C 49.3°F9.6°C 39% 0.6 mph W1.0 kmh W 3.1 mph5.0 kmh 27.67 in937.0 mb 0.00 in0.0 mm 0.00 in/hr0.0 mm/hr 0.00 in0.0 mm
02:42 PM 73.8°F23.2°C 49.9°F9.9°C 44% 0.3 mph E0.5 kmh E 2.5 mph4.0 kmh 27.67 in937.0 mb 0.00 in0.0 mm 0.00 in/hr0.0 mm/hr 0.00 in0.0 mm
02:47 PM 73.8°F23.2°C 50.6°F10.3°C 44% 0.9 mph WSW1.4 kmh WSW 2.5 mph4.0 kmh 27.67 in937.0 mb 0.00 in0.0 mm 0.00 in/hr0.0 mm/hr 0.00 in0.0 mm
02:52 PM 74.0°F23.3°C 48.7°F9.3°C 39% Calm Calm 2.0 mph3.2 kmh 27.67 in937.0 mb 0.00 in0.0 mm 0.00 in/hr0.0 mm/hr 0.00 in0.0 mm
02:57 PM 73.8°F23.2°C 49.5°F9.7°C 44% 0.2 mph NW0.3 kmh NW 2.5 mph4.0 kmh 27.67 in937.0 mb 0.00 in0.0 mm 0.00 in/hr0.0 mm/hr 0.00 in0.0 mm
03:02 PM 74.2°F23.4°C 50.5°F10.3°C 42% 0.8 mph ESE1.3 kmh ESE 2.5 mph4.0 kmh 27.64 in936.0 mb 0.00 in0.0 mm 0.00 in/hr0.0 mm/hr 0.00 in0.0 mm
03:07 PM 74.2°F23.4°C 48.5°F9.2°C 41% 1.4 mph W2.3 kmh W 2.7 mph4.3 kmh 27.64 in936.0 mb 0.00 in0.0 mm 0.00 in/hr0.0 mm/hr 0.00 in0.0 mm
03:12 PM 74.1°F23.4°C 50.2°F10.1°C 44% 0.3 mph SSE0.5 kmh SSE 2.7 mph4.3 kmh 27.64 in936.0 mb 0.00 in0.0 mm 0.00 in/hr0.0 mm/hr 0.00 in0.0 mm
03:17 PM 74.3°F23.5°C 50.3°F10.2°C 41% 0.4 mph SSW0.6 kmh SSW 2.0 mph3.2 kmh 27.64 in936.0 mb 0.00 in0.0 mm 0.00 in/hr0.0 mm/hr 0.00 in0.0 mm
03:22 PM 74.1°F23.4°C 48.2°F9.0°C 41% 1.0 mph NW1.6 kmh NW 2.7 mph4.3 kmh 27.64 in936.0 mb 0.00 in0.0 mm 0.00 in/hr0.0 mm/hr 0.00 in0.0 mm
03:27 PM 74.0°F23.3°C 50.4°F10.2°C 44% 0.8 mph E1.3 kmh E 2.7 mph4.3 kmh 27.64 in936.0 mb 0.00 in0.0 mm 0.00 in/hr0.0 mm/hr 0.00 in0.0 mm
03:32 PM 74.4°F23.6°C 50.6°F10.3°C 42% 0.4 mph SE0.6 kmh SE 2.5 mph4.0 kmh 27.64 in936.0 mb 0.00 in0.0 mm 0.00 in/hr0.0 mm/hr 0.00 in0.0 mm
03:37 PM 74.2°F23.4°C 48.4°F9.1°C 41% 1.9 mph E3.1 kmh E 3.1 mph5.0 kmh 27.64 in936.0 mb 0.00 in0.0 mm 0.00 in/hr0.0 mm/hr 0.00 in0.0 mm
03:42 PM 74.0°F23.3°C 49.9°F9.9°C 44% 1.5 mph E2.4 kmh E 3.1 mph5.0 kmh 27.64 in936.0 mb 0.00 in0.0 mm 0.00 in/hr0.0 mm/hr 0.00 in0.0 mm
03:47 PM 74.2°F23.4°C 50.3°F10.2°C 43% 1.7 mph ENE2.7 kmh ENE 4.0 mph6.4 kmh 27.67 in937.0 mb 0.00 in0.0 mm 0.00 in/hr0.0 mm/hr 0.00 in0.0 mm
03:52 PM 74.3°F23.5°C 49.5°F9.7°C 39% 1.4 mph ENE2.3 kmh ENE 4.0 mph6.4 kmh 27.67 in937.0 mb 0.00 in0.0 mm 0.00 in/hr0.0 mm/hr 0.00 in0.0 mm
03:57 PM 73.5°F23.1°C 49.0°F9.4°C 44% 0.6 mph ESE1.0 kmh ESE 2.5 mph4.0 kmh 27.67 in937.0 mb 0.00 in0.0 mm 0.00 in/hr0.0 mm/hr 0.00 in0.0 mm
04:02 PM 73.3°F22.9°C 50.1°F10.1°C 44% 1.2 mph ENE1.9 kmh ENE 2.5 mph4.0 kmh 27.67 in937.0 mb 0.00 in0.0 mm 0.00 in/hr0.0 mm/hr 0.00 in0.0 mm
04:07 PM 73.7°F23.2°C 50.3°F10.2°C 43% 1.7 mph E2.7 kmh E 2.7 mph4.3 kmh 27.67 in937.0 mb 0.00 in0.0 mm 0.00 in/hr0.0 mm/hr 0.00 in0.0 mm
04:12 PM 74.0°F23.3°C 49.7°F9.8°C 41% 1.8 mph ESE2.9 kmh ESE 3.8 mph6.1 kmh 27.67 in937.0 mb 0.00 in0.0 mm 0.00 in/hr0.0 mm/hr 0.00 in0.0 mm
04:17 PM 73.6°F23.1°C 48.3°F9.1°C 43% 2.6 mph E4.2 kmh E 3.8 mph6.1 kmh 27.67 in937.0 mb 0.00 in0.0 mm 0.00 in/hr0.0 mm/hr 0.00 in0.0 mm
04:22 PM 73.6°F23.1°C 49.8°F9.9°C 43% 2.2 mph SE3.5 kmh SE 3.6 mph5.8 kmh 27.67 in937.0 mb 0.00 in0.0 mm 0.00 in/hr0.0 mm/hr 0.00 in0.0 mm
04:27 PM 73.9°F23.3°C 50.0°F10.0°C 43% 2.0 mph NE3.2 kmh NE 4.9 mph7.9 kmh 27.67 in937.0 mb 0.00 in0.0 mm 0.00 in/hr0.0 mm/hr 0.00 in0.0 mm
04:32 PM 74.1°F23.4°C 50.1°F10.1°C 42% 2.4 mph ENE3.9 kmh ENE 4.9 mph7.9 kmh 27.67 in937.0 mb 0.00 in0.0 mm 0.00 in/hr0.0 mm/hr 0.00 in0.0 mm
04:37 PM 74.3°F23.5°C 49.8°F9.9°C 42% 2.8 mph SSE4.5 kmh SSE 4.0 mph6.4 kmh 27.67 in937.0 mb 0.00 in0.0 mm 0.00 in/hr0.0 mm/hr 0.00 in0.0 mm
04:42 PM 74.5°F23.6°C 49.9°F9.9°C 42% 2.6 mph ENE4.2 kmh ENE 4.0 mph6.4 kmh 27.67 in937.0 mb 0.00 in0.0 mm 0.00 in/hr0.0 mm/hr 0.00 in0.0 mm
04:47 PM 74.6°F23.7°C 50.0°F10.0°C 42% 1.9 mph E3.1 kmh E 5.6 mph9.0 kmh 27.67 in937.0 mb 0.00 in0.0 mm 0.00 in/hr0.0 mm/hr 0.00 in0.0 mm
04:52 PM 74.7°F23.7°C 50.1°F10.1°C 42% 0.8 mph NE1.3 kmh NE 5.6 mph9.0 kmh 27.67 in937.0 mb 0.00 in0.0 mm 0.00 in/hr0.0 mm/hr 0.00 in0.0 mm
04:57 PM 74.8°F23.8°C 49.9°F9.9°C 41% 1.4 mph ENE2.3 kmh ENE 2.9 mph4.7 kmh 27.67 in937.0 mb 0.00 in0.0 mm 0.00 in/hr0.0 mm/hr 0.00 in0.0 mm
05:02 PM 74.8°F23.8°C 49.6°F9.8°C 41% 1.5 mph NW2.4 kmh NW 3.6 mph5.8 kmh 27.67 in937.0 mb 0.00 in0.0 mm 0.00 in/hr0.0 mm/hr 0.00 in0.0 mm
05:07 PM 74.9°F23.8°C 49.6°F9.8°C 41% 2.1 mph NE3.4 kmh NE 3.8 mph6.1 kmh 27.67 in937.0 mb 0.00 in0.0 mm 0.00 in/hr0.0 mm/hr 0.00 in0.0 mm
05:12 PM 74.5°F23.6°C 47.2°F8.4°C 37% 1.4 mph ENE2.3 kmh ENE 3.8 mph6.1 kmh 27.67 in937.0 mb 0.00 in0.0 mm 0.00 in/hr0.0 mm/hr 0.00 in0.0 mm
05:17 PM 73.9°F23.3°C 48.6°F9.2°C 42% 1.5 mph ENE2.4 kmh ENE 3.4 mph5.5 kmh 27.70 in938.0 mb 0.00 in0.0 mm 0.00 in/hr0.0 mm/hr 0.00 in0.0 mm
05:22 PM 73.8°F23.2°C 49.3°F9.6°C 42% 1.2 mph E1.9 kmh E 2.9 mph4.7 kmh 27.70 in938.0 mb 0.00 in0.0 mm 0.00 in/hr0.0 mm/hr 0.00 in0.0 mm
05:27 PM 73.8°F23.2°C 49.3°F9.6°C 42% 1.4 mph ESE2.3 kmh ESE 4.0 mph6.4 kmh 27.70 in938.0 mb 0.00 in0.0 mm 0.00 in/hr0.0 mm/hr 0.00 in0.0 mm
05:32 PM 73.8°F23.2°C 49.3°F9.6°C 42% 0.8 mph E1.3 kmh E 4.0 mph6.4 kmh 27.67 in937.0 mb 0.00 in0.0 mm 0.00 in/hr0.0 mm/hr 0.00 in0.0 mm
05:37 PM 73.8°F23.2°C 49.3°F9.6°C 42% 1.5 mph NE2.4 kmh NE 2.7 mph4.3 kmh 27.67 in937.0 mb 0.00 in0.0 mm 0.00 in/hr0.0 mm/hr 0.00 in0.0 mm
05:42 PM 73.8°F23.2°C 49.3°F9.6°C 42% 1.1 mph NE1.8 kmh NE 2.5 mph4.0 kmh 27.67 in937.0 mb 0.00 in0.0 mm 0.00 in/hr0.0 mm/hr 0.00 in0.0 mm
05:47 PM 73.8°F23.2°C 49.3°F9.6°C 42% 0.2 mph SSW0.3 kmh SSW 2.5 mph4.0 kmh 27.67 in937.0 mb 0.00 in0.0 mm 0.00 in/hr0.0 mm/hr 0.00 in0.0 mm
05:52 PM 73.8°F23.2°C 49.3°F9.6°C 42% 1.1 mph NE1.8 kmh NE 2.2 mph3.5 kmh 27.67 in937.0 mb 0.00 in0.0 mm 0.00 in/hr0.0 mm/hr 0.00 in0.0 mm
05:57 PM 73.8°F23.2°C 49.3°F9.6°C 42% 0.3 mph E0.5 kmh E 2.2 mph3.5 kmh 27.67 in937.0 mb 0.00 in0.0 mm 0.00 in/hr0.0 mm/hr 0.00 in0.0 mm
06:02 PM 73.8°F23.2°C 49.3°F9.6°C 42% 1.2 mph ESE1.9 kmh ESE 2.5 mph4.0 kmh 27.64 in936.0 mb 0.00 in0.0 mm 0.00 in/hr0.0 mm/hr 0.00 in0.0 mm
06:07 PM 73.8°F23.2°C 49.3°F9.6°C 42% Calm Calm 2.5 mph4.0 kmh 27.64 in936.0 mb 0.00 in0.0 mm 0.00 in/hr0.0 mm/hr 0.00 in0.0 mm
06:12 PM 73.8°F23.2°C 49.3°F9.6°C 42% Calm Calm 2.0 mph3.2 kmh 27.64 in936.0 mb 0.00 in0.0 mm 0.00 in/hr0.0 mm/hr 0.00 in0.0 mm
06:17 PM 73.8°F23.2°C 49.3°F9.6°C 42% 1.1 mph NE1.8 kmh NE 1.6 mph2.6 kmh 27.64 in936.0 mb 0.00 in0.0 mm 0.00 in/hr0.0 mm/hr 0.00 in0.0 mm
06:22 PM 73.8°F23.2°C 49.3°F9.6°C 42% 1.9 mph NE3.1 kmh NE 2.9 mph4.7 kmh 27.64 in936.0 mb 0.00 in0.0 mm 0.00 in/hr0.0 mm/hr 0.00 in0.0 mm
06:27 PM 73.7°F23.2°C 49.2°F9.6°C 42% 1.5 mph NE2.4 kmh NE 2.9 mph4.7 kmh 27.64 in936.0 mb 0.00 in0.0 mm 0.00 in/hr0.0 mm/hr 0.00 in0.0 mm
06:32 PM 73.6°F23.1°C 49.1°F9.5°C 42% 0.2 mph ENE0.3 kmh ENE 2.7 mph4.3 kmh 27.64 in936.0 mb 0.00 in0.0 mm 0.00 in/hr0.0 mm/hr 0.00 in0.0 mm
06:37 PM 73.6°F23.1°C 49.1°F9.5°C 42% Calm Calm 2.2 mph3.5 kmh 27.64 in936.0 mb 0.00 in0.0 mm 0.00 in/hr0.0 mm/hr 0.00 in0.0 mm
06:42 PM 73.5°F23.1°C 49.1°F9.5°C 42% 0.1 mph WSW0.2 kmh WSW 2.2 mph3.5 kmh 27.64 in936.0 mb 0.00 in0.0 mm 0.00 in/hr0.0 mm/hr 0.00 in0.0 mm
06:47 PM 73.4°F23.0°C 48.9°F9.4°C 42% Calm Calm 1.3 mph2.1 kmh 27.67 in937.0 mb 0.00 in0.0 mm 0.00 in/hr0.0 mm/hr 0.00 in0.0 mm
06:52 PM 73.4°F23.0°C 48.9°F9.4°C 42% Calm Calm 1.3 mph2.1 kmh 27.67 in937.0 mb 0.00 in0.0 mm 0.00 in/hr0.0 mm/hr 0.00 in0.0 mm
06:57 PM 73.4°F23.0°C 48.9°F9.4°C 42% 1.1 mph SE1.8 kmh SE 2.2 mph3.5 kmh 27.67 in937.0 mb 0.00 in0.0 mm 0.00 in/hr0.0 mm/hr 0.00 in0.0 mm
07:02 PM 73.3°F22.9°C 48.9°F9.4°C 42% Calm Calm 2.2 mph3.5 kmh 27.67 in937.0 mb 0.00 in0.0 mm 0.00 in/hr0.0 mm/hr 0.00 in0.0 mm
07:07 PM 73.2°F22.9°C 49.2°F9.6°C 43% Calm Calm 1.3 mph2.1 kmh 27.67 in937.0 mb 0.00 in0.0 mm 0.00 in/hr0.0 mm/hr 0.00 in0.0 mm
07:12 PM 73.2°F22.9°C 49.4°F9.7°C 43% 0.4 mph E0.6 kmh E 2.0 mph3.2 kmh 27.67 in937.0 mb 0.00 in0.0 mm 0.00 in/hr0.0 mm/hr 0.00 in0.0 mm
07:17 PM 73.0°F22.8°C 49.2°F9.6°C 43% Calm Calm 2.0 mph3.2 kmh 27.67 in937.0 mb 0.00 in0.0 mm 0.00 in/hr0.0 mm/hr 0.00 in0.0 mm
07:22 PM 73.0°F22.8°C 49.2°F9.6°C 43% 2.4 mph E3.9 kmh E 6.3 mph10.1 kmh 27.67 in937.0 mb 0.00 in0.0 mm 0.00 in/hr0.0 mm/hr 0.00 in0.0 mm
07:27 PM 72.9°F22.7°C 49.1°F9.5°C 43% 0.6 mph SW1.0 kmh SW 6.3 mph10.1 kmh 27.67 in937.0 mb 0.00 in0.0 mm 0.00 in/hr0.0 mm/hr 0.00 in0.0 mm
07:32 PM 72.9°F22.7°C 49.1°F9.5°C 43% 0.9 mph E1.4 kmh E 2.5 mph4.0 kmh 27.70 in938.0 mb 0.00 in0.0 mm 0.00 in/hr0.0 mm/hr 0.00 in0.0 mm
07:37 PM 72.8°F22.7°C 49.0°F9.4°C 43% 0.8 mph E1.3 kmh E 2.9 mph4.7 kmh 27.70 in938.0 mb 0.00 in0.0 mm 0.00 in/hr0.0 mm/hr 0.00 in0.0 mm
07:42 PM 72.7°F22.6°C 48.9°F9.4°C 43% 0.7 mph SE1.1 kmh SE 2.9 mph4.7 kmh 27.70 in938.0 mb 0.00 in0.0 mm 0.00 in/hr0.0 mm/hr 0.00 in0.0 mm
07:47 PM 72.6°F22.6°C 49.0°F9.4°C 44% Calm Calm 2.5 mph4.0 kmh 27.70 in938.0 mb 0.00 in0.0 mm 0.00 in/hr0.0 mm/hr 0.00 in0.0 mm
07:52 PM 72.5°F22.5°C 49.4°F9.7°C 44% 0.8 mph SSW1.3 kmh SSW 3.4 mph5.5 kmh 27.70 in938.0 mb 0.00 in0.0 mm 0.00 in/hr0.0 mm/hr 0.00 in0.0 mm
07:57 PM 72.5°F22.5°C 49.4°F9.7°C 44% 1.3 mph SSW2.1 kmh SSW 3.4 mph5.5 kmh 27.70 in938.0 mb 0.00 in0.0 mm 0.00 in/hr0.0 mm/hr 0.00 in0.0 mm
08:02 PM 72.3°F22.4°C 49.2°F9.6°C 44% Calm Calm 2.5 mph4.0 kmh 27.70 in938.0 mb 0.00 in0.0 mm 0.00 in/hr0.0 mm/hr 0.00 in0.0 mm
08:07 PM 72.3°F22.4°C 49.2°F9.6°C 44% 0.2 mph E0.3 kmh E 1.1 mph1.8 kmh 27.70 in938.0 mb 0.00 in0.0 mm 0.00 in/hr0.0 mm/hr 0.00 in0.0 mm
08:12 PM 72.1°F22.3°C 49.1°F9.5°C 44% Calm Calm 1.1 mph1.8 kmh 27.70 in938.0 mb 0.00 in0.0 mm 0.00 in/hr0.0 mm/hr 0.00 in0.0 mm
08:17 PM 72.1°F22.3°C 49.1°F9.5°C 44% Calm Calm -- 27.70 in938.0 mb 0.00 in0.0 mm 0.00 in/hr0.0 mm/hr 0.00 in0.0 mm
08:22 PM 72.0°F22.2°C 48.9°F9.4°C 44% Calm Calm -- 27.70 in938.0 mb 0.00 in0.0 mm 0.00 in/hr0.0 mm/hr 0.00 in0.0 mm
08:27 PM 72.0°F22.2°C 48.9°F9.4°C 44% Calm Calm -- 27.70 in938.0 mb 0.00 in0.0 mm 0.00 in/hr0.0 mm/hr 0.00 in0.0 mm
08:32 PM 71.8°F22.1°C 49.3°F9.6°C 45% Calm Calm -- 27.70 in938.0 mb 0.00 in0.0 mm 0.00 in/hr0.0 mm/hr 0.00 in0.0 mm
08:37 PM 71.8°F22.1°C 49.3°F9.6°C 45% Calm Calm -- 27.70 in938.0 mb 0.00 in0.0 mm 0.00 in/hr0.0 mm/hr 0.00 in0.0 mm
08:42 PM 71.6°F22.0°C 49.2°F9.6°C 45% Calm Calm -- 27.70 in938.0 mb 0.00 in0.0 mm 0.00 in/hr0.0 mm/hr 0.00 in0.0 mm
08:47 PM 71.6°F22.0°C 49.1°F9.5°C 45% Calm Calm -- 27.70 in938.0 mb 0.00 in0.0 mm 0.00 in/hr0.0 mm/hr 0.00 in0.0 mm
08:52 PM 71.4°F21.9°C 49.2°F9.6°C 46% Calm Calm -- 27.70 in938.0 mb 0.00 in0.0 mm 0.00 in/hr0.0 mm/hr 0.00 in0.0 mm
08:57 PM 71.3°F21.8°C 49.5°F9.7°C 46% Calm Calm -- 27.70 in938.0 mb 0.00 in0.0 mm 0.00 in/hr0.0 mm/hr 0.00 in0.0 mm
09:02 PM 71.2°F21.8°C 49.4°F9.7°C 46% Calm Calm -- 27.70 in938.0 mb 0.00 in0.0 mm 0.00 in/hr0.0 mm/hr 0.00 in0.0 mm
09:07 PM 71.1°F21.7°C 49.3°F9.6°C 46% Calm Calm -- 27.70 in938.0 mb 0.00 in0.0 mm 0.00 in/hr0.0 mm/hr 0.00 in0.0 mm
09:12 PM 71.0°F21.7°C 49.2°F9.6°C 46% Calm Calm -- 27.70 in938.0 mb 0.00 in0.0 mm 0.00 in/hr0.0 mm/hr 0.00 in0.0 mm
09:17 PM 70.9°F21.6°C 49.1°F9.5°C 46% Calm Calm -- 27.70 in938.0 mb 0.00 in0.0 mm 0.00 in/hr0.0 mm/hr 0.00 in0.0 mm
09:22 PM 70.7°F21.5°C 48.9°F9.4°C 46% Calm Calm -- 27.70 in938.0 mb 0.00 in0.0 mm 0.00 in/hr0.0 mm/hr 0.00 in0.0 mm
09:27 PM 70.6°F21.4°C 49.1°F9.5°C 47% Calm Calm -- 27.70 in938.0 mb 0.00 in0.0 mm 0.00 in/hr0.0 mm/hr 0.00 in0.0 mm
09:32 PM 70.5°F21.4°C 49.3°F9.6°C 47% Calm Calm -- 27.70 in938.0 mb 0.00 in0.0 mm 0.00 in/hr0.0 mm/hr 0.00 in0.0 mm
09:37 PM 70.3°F21.3°C 49.2°F9.6°C 47% Calm Calm -- 27.70 in938.0 mb 0.00 in0.0 mm 0.00 in/hr0.0 mm/hr 0.00 in0.0 mm
09:42 PM 70.2°F21.2°C 49.1°F9.5°C 47% Calm Calm -- 27.70 in938.0 mb 0.00 in0.0 mm 0.00 in/hr0.0 mm/hr 0.00 in0.0 mm
09:47 PM 70.2°F21.2°C 49.0°F9.4°C 47% Calm Calm -- 27.70 in938.0 mb 0.00 in0.0 mm 0.00 in/hr0.0 mm/hr 0.00 in0.0 mm
09:52 PM 70.0°F21.1°C 48.9°F9.4°C 47% 0.4 mph SE0.6 kmh SE 1.6 mph2.6 kmh 27.70 in938.0 mb 0.00 in0.0 mm 0.00 in/hr0.0 mm/hr 0.00 in0.0 mm
09:57 PM 69.9°F21.1°C 48.9°F9.4°C 48% Calm Calm 1.6 mph2.6 kmh 27.70 in938.0 mb 0.00 in0.0 mm 0.00 in/hr0.0 mm/hr 0.00 in0.0 mm
10:03 PM 69.8°F21.0°C 49.3°F9.6°C 48% Calm Calm -- -338605.1 mb 0.00 in0.0 mm 0.00 in/hr0.0 mm/hr 0.00 in0.0 mm
10:07 PM 69.8°F21.0°C 49.2°F9.6°C 48% Calm Calm -- 27.70 in938.0 mb 0.00 in0.0 mm 0.00 in/hr0.0 mm/hr 0.00 in0.0 mm
10:12 PM 69.6°F20.9°C 49.1°F9.5°C 48% Calm Calm -- -338605.1 mb 0.00 in0.0 mm 0.00 in/hr0.0 mm/hr 0.00 in0.0 mm
10:17 PM 69.6°F20.9°C 49.1°F9.5°C 48% Calm Calm -- -338605.1 mb 0.00 in0.0 mm 0.00 in/hr0.0 mm/hr 0.00 in0.0 mm
10:22 PM 69.4°F20.8°C 48.9°F9.4°C 48% Calm Calm -- 27.70 in938.0 mb 0.00 in0.0 mm 0.00 in/hr0.0 mm/hr 0.00 in0.0 mm
10:27 PM 69.4°F20.8°C 48.9°F9.4°C 48% Calm Calm -- 27.70 in938.0 mb 0.00 in0.0 mm 0.00 in/hr0.0 mm/hr 0.00 in0.0 mm
10:33 PM 69.3°F20.7°C 48.8°F9.3°C 48% Calm Calm -- -338605.1 mb 0.00 in0.0 mm 0.00 in/hr0.0 mm/hr 0.00 in0.0 mm
10:37 PM 69.1°F20.6°C 49.0°F9.4°C 49% Calm Calm -- 27.70 in938.0 mb 0.00 in0.0 mm 0.00 in/hr0.0 mm/hr 0.00 in0.0 mm
10:40 PM 69.1°F20.6°C 49.1°F9.5°C 49% Calm Calm -- 27.70 in938.0 mb 0.00 in0.0 mm 0.00 in/hr0.0 mm/hr 0.00 in0.0 mm
10:45 PM 69.0°F20.6°C 49.1°F9.5°C 49% Calm Calm -- 27.70 in938.0 mb 0.00 in0.0 mm 0.00 in/hr0.0 mm/hr 0.00 in0.0 mm
10:50 PM 68.9°F20.5°C 49.0°F9.4°C 49% Calm Calm -- 27.70 in938.0 mb 0.00 in0.0 mm 0.00 in/hr0.0 mm/hr 0.00 in0.0 mm
10:55 PM 68.8°F20.4°C 48.9°F9.4°C 49% Calm Calm -- 27.70 in938.0 mb 0.00 in0.0 mm 0.00 in/hr0.0 mm/hr 0.00 in0.0 mm
11:00 PM 68.7°F20.4°C 48.8°F9.3°C 49% Calm Calm -- 27.70 in938.0 mb 0.00 in0.0 mm 0.00 in/hr0.0 mm/hr 0.00 in0.0 mm
11:05 PM 68.6°F20.3°C 48.7°F9.3°C 49% Calm Calm -- 27.70 in938.0 mb 0.00 in0.0 mm 0.00 in/hr0.0 mm/hr 0.00 in0.0 mm
11:10 PM 68.5°F20.3°C 48.6°F9.2°C 49% Calm Calm -- 27.70 in938.0 mb 0.00 in0.0 mm 0.00 in/hr0.0 mm/hr 0.00 in0.0 mm
11:15 PM 68.4°F20.2°C 48.5°F9.2°C 49% Calm Calm -- 27.70 in938.0 mb 0.00 in0.0 mm 0.00 in/hr0.0 mm/hr 0.00 in0.0 mm
11:20 PM 68.2°F20.1°C 48.3°F9.1°C 49% Calm Calm -- -338605.1 mb 0.00 in0.0 mm 0.00 in/hr0.0 mm/hr 0.00 in0.0 mm
11:25 PM 68.2°F20.1°C 48.4°F9.1°C 50% Calm Calm -- 27.70 in938.0 mb 0.00 in0.0 mm 0.00 in/hr0.0 mm/hr 0.00 in0.0 mm
11:30 PM 68.0°F20.0°C 48.7°F9.3°C 50% Calm Calm -- 27.70 in938.0 mb 0.00 in0.0 mm 0.00 in/hr0.0 mm/hr 0.00 in0.0 mm
11:35 PM 67.9°F19.9°C 48.6°F9.2°C 50% Calm Calm 1.1 mph1.8 kmh -338605.1 mb 0.00 in0.0 mm 0.00 in/hr0.0 mm/hr 0.00 in0.0 mm
11:40 PM 67.8°F19.9°C 48.5°F9.2°C 50% Calm Calm 1.1 mph1.8 kmh 27.70 in938.0 mb 0.00 in0.0 mm 0.00 in/hr0.0 mm/hr 0.00 in0.0 mm
11:45 PM 67.8°F19.9°C 48.5°F9.2°C 50% Calm Calm 1.1 mph1.8 kmh -338605.1 mb 0.00 in0.0 mm 0.00 in/hr0.0 mm/hr 0.00 in0.0 mm
11:50 PM 67.6°F19.8°C 48.4°F9.1°C 50% Calm Calm -- 27.70 in938.0 mb 0.00 in0.0 mm 0.00 in/hr0.0 mm/hr 0.00 in0.0 mm
11:55 PM 67.6°F19.8°C 48.3°F9.1°C 50% Calm Calm -- 27.70 in938.0 mb 0.00 in0.0 mm 0.00 in/hr0.0 mm/hr 0.00 in0.0 mm